Time;durP1;ratioP1;P1;durP2;ratioP2;P2;SDS_P1;SDS_P2;PMS_P1;PMS_P2;Temp;Humidity;BMP_temperature;BMP_pressure;BME280_temperature;BME280_humidity;BME280_pressure;Samples;Min_cycle;Max_cycle;Signal;HPM_P1;HPM_P2
2022/05/24 00:01:22;;;;;;;3.13;2.30;;;;;;;18.22;50.40;99434.88;7396616;19;20018;-70
2022/05/24 00:03:50;;;;;;;6.03;2.47;;;;;;;18.20;50.26;99432.34;7396670;19;20026;-70
2022/05/24 00:06:19;;;;;;;4.53;2.17;;;;;;;18.16;50.35;99430.91;7397108;19;20356;-74
2022/05/24 00:08:47;;;;;;;4.88;2.50;;;;;;;18.17;50.41;99435.25;7397991;19;20363;-67
2022/05/24 00:11:15;;;;;;;2.88;1.88;;;;;;;18.16;50.69;99438.00;7398509;19;20014;-69
2022/05/24 00:13:46;;;;;;;3.00;2.13;;;;;;;18.14;50.86;99435.47;7398359;19;20026;-69
2022/05/24 00:16:14;;;;;;;4.05;2.10;;;;;;;18.13;50.88;99430.28;7395956;19;20469;-69
2022/05/24 00:18:43;;;;;;;3.78;2.03;;;;;;;18.14;51.01;99431.97;7398075;19;20040;-69
2022/05/24 00:21:11;;;;;;;3.92;2.40;;;;;;;18.12;51.05;99433.88;7398177;19;20031;-69
2022/05/24 00:23:39;;;;;;;4.15;2.05;;;;;;;18.12;50.88;99428.56;7397143;19;20015;-69
2022/05/24 00:26:10;;;;;;;2.90;1.65;;;;;;;18.12;51.32;99436.53;7396395;19;20419;-69
2022/05/24 00:28:39;;;;;;;3.72;2.13;;;;;;;18.13;51.21;99438.22;7397850;19;20010;-68
2022/05/24 00:31:09;;;;;;;4.25;2.17;;;;;;;18.13;51.45;99432.94;7395320;19;20039;-69
2022/05/24 00:33:37;;;;;;;4.00;2.53;;;;;;;18.12;51.46;99426.78;7398191;19;20032;-69
2022/05/24 00:36:06;;;;;;;4.95;2.20;;;;;;;18.15;51.39;99423.06;7397828;19;20039;-69
2022/05/24 00:38:37;;;;;;;4.57;2.45;;;;;;;18.16;51.27;99435.34;7395433;19;20410;-69
2022/05/24 00:41:17;;;;;;;4.55;1.95;;;;;;;18.17;51.92;99437.03;7397551;19;20078;-69
2022/05/24 00:43:49;;;;;;;6.90;2.47;;;;;;;18.18;51.63;99433.44;7397464;19;20026;-69
2022/05/24 00:46:24;;;;;;;3.92;2.30;;;;;;;18.18;51.82;99430.78;7397203;19;20509;-69
2022/05/24 00:48:57;;;;;;;3.20;2.20;;;;;;;18.18;51.75;99428.94;7395977;19;20011;-68
2022/05/24 00:51:30;;;;;;;4.35;2.65;;;;;;;18.16;52.08;99424.72;7396779;19;20018;-68
2022/05/24 00:53:59;;;;;;;4.00;1.90;;;;;;;18.19;52.05;99435.13;7395606;19;20022;-68
2022/05/24 00:56:47;;;;;;;3.15;2.17;;;;;;;18.19;52.29;99429.81;7396791;19;20371;-68
2022/05/24 00:59:24;;;;;;;4.20;2.42;;;;;;;18.19;52.07;99428.00;7396822;19;20026;-68
2022/05/24 01:01:55;;;;;;;4.18;2.30;;;;;;;18.18;52.43;99423.66;7396671;19;20485;-68
2022/05/24 01:04:23;;;;;;;3.28;2.40;;;;;;;18.17;52.15;99423.75;7396071;19;20018;-68
2022/05/24 01:06:52;;;;;;;2.97;2.30;;;;;;;18.19;52.06;99427.16;7396804;19;20497;-68
2022/05/24 01:09:24;;;;;;;4.30;2.17;;;;;;;18.20;52.12;99426.22;7396089;19;20019;-68
2022/05/24 01:11:57;;;;;;;5.07;2.33;;;;;;;18.19;52.70;99430.66;7395415;19;20018;-69
2022/05/24 01:14:26;;;;;;;5.10;2.42;;;;;;;18.18;52.35;99422.81;7395218;19;20537;-68
2022/05/24 01:16:58;;;;;;;3.83;2.60;;;;;;;18.19;52.42;99425.34;7396492;19;20031;-68
2022/05/24 01:19:40;;;;;;;4.30;2.50;;;;;;;18.20;52.50;99432.34;7394728;19;20043;-68
2022/05/24 01:22:19;;;;;;;5.35;2.53;;;;;;;18.21;52.36;99427.88;7396747;19;20022;-68
2022/05/24 01:24:55;;;;;;;5.45;2.13;;;;;;;18.21;52.75;99427.88;7395286;19;20035;-69
2022/05/24 01:27:26;;;;;;;5.05;2.22;;;;;;;18.21;52.74;99423.44;7394279;19;20027;-69
2022/05/24 01:29:54;;;;;;;3.60;2.50;;;;;;;18.22;52.75;99430.44;7395506;19;20022;-68
2022/05/24 01:37:43;;;;;;;2.92;2.35;;;;;;;18.20;52.99;99432.34;7396057;19;20370;-68
2022/05/24 01:40:18;;;;;;;3.58;2.03;;;;;;;18.20;53.65;99432.34;7394251;19;20657;-68
2022/05/24 01:42:49;;;;;;;3.65;2.30;;;;;;;18.18;53.28;99434.25;7395332;19;20480;-68
2022/05/24 01:45:23;;;;;;;5.97;2.45;;;;;;;18.20;53.79;99436.81;7393944;19;20019;-69
2022/05/24 01:47:58;;;;;;;5.50;2.22;;;;;;;18.19;53.76;99437.78;7396128;19;20014;-69
2022/05/24 01:50:28;;;;;;;3.05;2.22;;;;;;;18.18;54.56;99444.03;7393943;19;20431;-69
2022/05/24 01:53:00;;;;;;;4.57;2.28;;;;;;;18.16;54.80;99440.66;7394110;19;20018;-69
2022/05/24 01:55:33;;;;;;;3.60;2.42;;;;;;;18.17;55.15;99442.34;7395856;19;20036;-68
2022/05/24 01:58:08;;;;;;;3.40;2.37;;;;;;;18.16;55.57;99448.59;7394939;19;20509;-69
2022/05/24 02:00:37;;;;;;;3.33;2.22;;;;;;;18.15;55.19;99437.16;7393563;19;20022;-69
2022/05/24 02:03:06;;;;;;;3.67;2.40;;;;;;;18.14;55.48;99440.75;7401564;19;20036;-70
2022/05/24 02:05:36;;;;;;;4.50;2.65;;;;;;;18.15;55.34;99438.97;7402373;19;20550;-70
2022/05/24 02:08:07;;;;;;;6.03;2.40;;;;;;;18.15;55.61;99447.78;7400050;19;20031;-68
2022/05/24 02:10:48;;;;;;;4.78;2.50;;;;;;;18.15;55.72;99441.63;7399573;19;20086;-69
2022/05/24 02:13:25;;;;;;;4.75;2.45;;;;;;;18.14;55.92;99440.75;7403070;19;20022;-69
2022/05/24 02:15:57;;;;;;;5.30;2.38;;;;;;;18.14;55.67;99438.13;7400945;19;20449;-70
2022/05/24 02:18:27;;;;;;;5.40;2.60;;;;;;;18.16;56.29;99451.25;7403294;19;20509;-69
2022/05/24 02:20:56;;;;;;;4.90;2.75;;;;;;;18.16;56.95;99448.59;7399127;19;20019;-68
2022/05/24 02:23:24;;;;;;;3.83;2.85;;;;;;;18.15;58.38;99439.81;7399265;19;20019;-69
2022/05/24 02:25:55;;;;;;;4.32;2.38;;;;;;;18.13;59.66;99438.22;7398719;19;20011;-69
2022/05/24 02:28:29;;;;;;;7.53;3.67;;;;;;;18.10;61.58;99443.75;7402345;19;20031;-69
2022/05/24 02:31:00;;;;;;;4.88;2.83;;;;;;;18.06;61.49;99441.34;7399026;19;20108;-69
2022/05/24 02:33:29;;;;;;;4.07;2.67;;;;;;;18.02;61.74;99439.00;7401948;19;20477;-69
2022/05/24 02:35:57;;;;;;;4.20;2.97;;;;;;;18.00;62.27;99436.47;7401266;19;20010;-68
2022/05/24 02:38:25;;;;;;;6.40;2.90;;;;;;;17.97;62.55;99436.72;7401514;19;20039;-69
2022/05/24 02:43:38;;;;;;;4.82;2.90;;;;;;;17.92;63.67;99441.50;7401327;19;20014;-69
2022/05/24 02:46:07;;;;;;;6.90;3.53;;;;;;;17.87;64.14;99441.81;7401124;19;20457;-69
2022/05/24 02:48:36;;;;;;;7.10;3.45;;;;;;;17.87;64.48;99447.13;7401465;19;20031;-69
2022/05/24 02:51:04;;;;;;;4.45;3.10;;;;;;;17.86;64.58;99445.41;7397848;19;20371;-69
2022/05/24 02:53:32;;;;;;;7.50;3.13;;;;;;;17.86;64.98;99444.59;7401231;19;20018;-69
2022/05/24 02:56:03;;;;;;;4.75;3.10;;;;;;;17.81;65.24;99444.91;7401164;19;20022;-69
2022/05/24 02:58:31;;;;;;;3.45;2.60;;;;;;;17.81;65.42;99447.56;7400705;19;20427;-69
2022/05/24 03:01:02;;;;;;;5.10;2.97;;;;;;;17.77;66.03;99445.25;7397924;19;20018;-69
2022/05/24 03:03:30;;;;;;;4.43;3.17;;;;;;;17.75;65.75;99453.31;7401271;19;20039;-69
2022/05/24 03:05:58;;;;;;;3.90;2.92;;;;;;;17.73;65.79;99449.91;7400787;19;20018;-69
2022/05/24 03:11:09;;;;;;;6.85;3.33;;;;;;;17.70;66.53;99456.28;7401099;19;20006;-69
2022/05/24 03:16:22;;;;;;;6.95;3.53;;;;;;;17.68;67.22;99446.75;7400625;19;20010;-68
2022/05/24 03:18:50;;;;;;;6.35;3.83;;;;;;;17.68;67.44;99449.41;7397835;19;20014;-69
2022/05/24 03:21:25;;;;;;;6.78;3.63;;;;;;;17.67;67.43;99456.53;7400003;19;20477;-69
2022/05/24 03:23:53;;;;;;;4.05;3.47;;;;;;;17.67;68.11;99458.34;7400205;19;20022;-69
2022/05/24 03:26:21;;;;;;;8.35;4.20;;;;;;;17.67;68.76;99466.28;7398693;19;20014;-70
2022/05/24 03:28:49;;;;;;;3.88;3.30;;;;;;;17.65;68.93;99457.59;7397502;19;20035;-69
2022/05/24 03:31:20;;;;;;;6.45;3.95;;;;;;;17.65;69.14;99470.84;7399390;19;20346;-69
2022/05/24 03:33:48;;;;;;;5.88;4.00;;;;;;;17.65;69.50;99468.19;7399676;19;20510;-69
2022/05/24 03:36:19;;;;;;;5.57;4.10;;;;;;;17.67;69.63;99471.59;7396867;19;20023;-69
2022/05/24 03:38:47;;;;;;;6.18;3.90;;;;;;;17.66;70.04;99473.38;7398627;19;20376;-69
2022/05/24 03:41:15;;;;;;;5.75;3.58;;;;;;;17.64;70.56;99477.97;7398808;19;20412;-69
2022/05/24 03:43:43;;;;;;;6.20;3.65;;;;;;;17.63;70.57;99475.41;7398879;19;20038;-69
2022/05/24 03:46:13;;;;;;;4.30;3.20;;;;;;;17.63;70.71;99486.00;7397481;19;20039;-69
2022/05/24 03:48:43;;;;;;;5.10;3.53;;;;;;;17.62;71.04;99487.00;7398797;19;20035;-70
2022/05/24 03:51:12;;;;;;;6.88;3.55;;;;;;;17.62;71.04;99495.78;7397339;19;20039;-69
2022/05/24 03:53:40;;;;;;;4.15;3.60;;;;;;;17.62;71.70;99497.59;7398985;19;20042;-69
2022/05/24 03:56:08;;;;;;;5.57;3.50;;;;;;;17.61;71.49;99495.91;7398480;19;20028;-69
2022/05/24 03:58:37;;;;;;;4.72;3.50;;;;;;;17.60;71.77;99508.28;7398830;19;20010;-69
2022/05/24 04:01:05;;;;;;;5.10;3.90;;;;;;;17.58;72.66;99507.56;7398549;19;20022;-69
2022/05/24 04:03:35;;;;;;;7.97;3.88;;;;;;;17.58;72.51;99518.19;7395935;19;20018;-69
2022/05/24 04:06:06;;;;;;;6.13;3.20;;;;;;;17.57;73.02;99519.13;7395658;19;20011;-69
2022/05/24 04:08:35;;;;;;;7.45;3.92;;;;;;;17.56;72.76;99520.09;7396344;19;20023;-69
2022/05/24 04:11:05;;;;;;;6.22;4.63;;;;;;;17.54;73.30;99525.50;7396465;19;20041;-69
2022/05/24 04:13:33;;;;;;;6.65;4.10;;;;;;;17.53;73.61;99528.28;7398348;19;20032;-69
2022/05/24 04:16:02;;;;;;;5.82;4.22;;;;;;;17.50;74.07;99531.13;7398266;19;20025;-69
2022/05/24 04:18:30;;;;;;;7.38;4.60;;;;;;;17.49;74.87;99540.88;7398785;19;20064;-70
2022/05/24 04:20:59;;;;;;;8.80;4.47;;;;;;;17.38;75.98;99533.66;7396017;19;20024;-70
2022/05/24 04:23:29;;;;;;;7.40;4.55;;;;;;;17.30;79.48;99554.56;7397935;19;20022;-70
2022/05/24 04:25:58;;;;;;;8.45;4.75;;;;;;;17.17;79.21;99561.66;7393258;19;20035;-70
2022/05/24 04:28:26;;;;;;;6.82;5.22;;;;;;;17.03;79.78;99566.09;7397997;19;20019;-70
2022/05/24 04:30:55;;;;;;;6.15;4.63;;;;;;;16.94;80.87;99577.31;7395265;19;20040;-70
2022/05/24 04:33:23;;;;;;;5.85;4.75;;;;;;;16.87;81.67;99584.78;7396211;19;20478;-70
2022/05/24 04:35:51;;;;;;;5.30;3.97;;;;;;;16.81;83.46;99576.38;7397052;19;20014;-70
2022/05/24 04:38:20;;;;;;;4.15;3.70;;;;;;;16.73;84.27;99577.75;7397202;19;20019;-69
2022/05/24 04:43:31;;;;;;;4.73;4.33;;;;;;;16.63;84.76;99602.28;7398243;19;20115;-70
2022/05/24 04:45:59;;;;;;;4.68;4.20;;;;;;;16.56;84.40;99607.97;7394968;19;20031;-70
2022/05/24 04:48:28;;;;;;;4.32;3.95;;;;;;;16.52;83.75;99605.66;7396765;19;20039;-69
2022/05/24 04:50:58;;;;;;;4.72;4.32;;;;;;;16.48;83.86;99605.00;7394552;19;20039;-70
2022/05/24 04:53:32;;;;;;;6.10;5.25;;;;;;;16.46;83.82;99612.19;7395006;19;20039;-70
2022/05/24 04:56:03;;;;;;;5.57;5.07;;;;;;;16.44;83.24;99620.22;7394720;19;20035;-71
2022/05/24 04:58:31;;;;;;;5.75;5.18;;;;;;;16.41;83.80;99624.84;7393518;19;20019;-70
2022/05/24 05:00:59;;;;;;;4.95;4.43;;;;;;;16.41;82.97;99622.22;7393451;19;20027;-70
2022/05/24 05:03:27;;;;;;;5.68;5.13;;;;;;;16.40;83.09;99629.31;7395639;19;20428;-70
2022/05/24 05:05:56;;;;;;;6.30;5.05;;;;;;;16.40;82.31;99631.97;7392572;19;20014;-70
2022/05/24 05:08:25;;;;;;;4.68;4.25;;;;;;;16.40;82.78;99637.25;7391855;19;20030;-68
2022/05/24 05:10:53;;;;;;;6.55;5.38;;;;;;;16.40;82.39;99633.75;7393970;19;20037;-71
2022/05/24 05:13:46;;;;;;;7.45;5.20;;;;;;;16.40;82.33;99639.91;7395817;19;20011;-73
2022/05/24 05:16:14;;;;;;;6.15;5.40;;;;;;;16.44;82.43;99640.53;7393002;19;20018;-70
2022/05/24 05:18:42;;;;;;;11.80;6.72;;;;;;;16.48;82.26;99638.53;7395322;19;20031;-70
2022/05/24 05:21:11;;;;;;;6.97;5.95;;;;;;;16.49;82.57;99648.19;7392161;19;20387;-70
2022/05/24 05:23:39;;;;;;;8.63;5.75;;;;;;;16.49;81.65;99650.84;7392346;19;20022;-70
2022/05/24 05:26:14;;;;;;;9.50;6.38;;;;;;;16.52;81.29;99648.00;7393426;19;20019;-71
2022/05/24 05:28:52;;;;;;;7.80;5.18;;;;;;;16.53;81.18;99655.84;7395261;19;20025;-69
2022/05/24 05:31:22;;;;;;;9.43;6.00;;;;;;;16.58;80.45;99658.19;7394285;19;20509;-69
2022/05/24 05:33:51;;;;;;;6.15;5.50;;;;;;;16.62;80.34;99651.75;7395330;19;20018;-69
2022/05/24 05:36:20;;;;;;;6.05;5.45;;;;;;;16.67;80.32;99652.31;7394115;19;20015;-70
2022/05/24 05:38:49;;;;;;;6.57;5.40;;;;;;;16.74;79.42;99655.41;7394733;19;20035;-68
2022/05/24 05:41:20;;;;;;;5.65;4.90;;;;;;;16.78;79.02;99663.06;7394271;19;20018;-69
2022/05/24 05:43:48;;;;;;;5.88;4.68;;;;;;;16.83;77.79;99653.97;7395896;19;20039;-70
2022/05/24 05:46:20;;;;;;;5.10;4.15;;;;;;;16.87;77.64;99648.38;7393668;19;20022;-70
2022/05/24 05:48:48;;;;;;;4.13;3.45;;;;;;;16.92;75.55;99662.19;7395280;19;20025;-70
2022/05/24 05:51:19;;;;;;;5.97;4.10;;;;;;;16.93;74.50;99669.19;7394832;19;20027;-69
2022/05/24 05:53:48;;;;;;;6.88;4.63;;;;;;;16.93;74.69;99674.50;7394682;19;20099;-70
2022/05/24 05:56:18;;;;;;;4.00;3.42;;;;;;;16.94;73.97;99688.56;7394792;19;20387;-70
2022/05/24 05:58:48;;;;;;;4.65;3.10;;;;;;;16.93;73.74;99678.94;7394512;19;20039;-70
2022/05/24 06:01:28;;;;;;;3.83;3.42;;;;;;;16.93;72.62;99689.53;7393708;19;20038;-70
2022/05/24 06:03:56;;;;;;;3.42;3.10;;;;;;;16.93;73.22;99689.53;7394828;19;20011;-69
2022/05/24 06:06:27;;;;;;;2.95;2.60;;;;;;;16.96;72.72;99699.06;7392258;19;20018;-69
2022/05/24 06:08:55;;;;;;;3.55;3.20;;;;;;;16.94;72.13;99699.19;7392348;19;20378;-70
2022/05/24 06:11:23;;;;;;;3.47;2.92;;;;;;;16.92;71.81;99704.59;7392577;19;20023;-69
2022/05/24 06:13:52;;;;;;;3.35;2.95;;;;;;;16.92;71.77;99701.94;7392322;19;20014;-71
2022/05/24 06:16:22;;;;;;;3.95;3.28;;;;;;;16.94;71.41;99713.25;7393768;19;20014;-69
2022/05/24 06:18:51;;;;;;;3.35;2.70;;;;;;;16.98;71.42;99715.72;7392146;19;20143;-70
2022/05/24 06:21:19;;;;;;;5.43;3.42;;;;;;;17.00;71.08;99725.28;7392116;19;20039;-69
2022/05/24 06:23:47;;;;;;;3.17;2.85;;;;;;;17.01;70.86;99721.69;7390770;19;20477;-69
2022/05/24 06:26:18;;;;;;;7.22;2.92;;;;;;;17.05;70.49;99719.69;7389923;19;20391;-70
2022/05/24 06:28:46;;;;;;;3.22;2.60;;;;;;;17.06;69.75;99714.28;7392980;19;20018;-70
2022/05/24 06:31:15;;;;;;;3.88;2.78;;;;;;;17.12;70.16;99728.06;7392100;19;20035;-69
2022/05/24 06:33:46;;;;;;;2.70;2.50;;;;;;;17.15;69.32;99735.81;7393057;19;20018;-69
2022/05/24 06:36:15;;;;;;;3.22;2.80;;;;;;;17.19;69.41;99719.63;7390278;19;20018;-70
2022/05/24 06:38:43;;;;;;;5.32;2.38;;;;;;;17.25;69.20;99724.53;7390058;19;20027;-70
2022/05/24 06:41:11;;;;;;;5.90;2.78;;;;;;;17.33;68.24;99724.00;7390830;19;20014;-70
2022/05/24 06:43:40;;;;;;;3.92;2.63;;;;;;;17.39;67.19;99726.25;7391024;19;20028;-70
2022/05/24 06:46:10;;;;;;;3.38;2.60;;;;;;;17.44;66.89;99731.25;7391733;19;20446;-71
2022/05/24 06:48:40;;;;;;;4.45;3.15;;;;;;;17.50;64.86;99753.84;7397711;19;20022;-69
2022/05/24 06:51:17;;;;;;;3.17;2.65;;;;;;;17.52;64.00;99751.97;7400464;19;20025;-69
2022/05/24 06:53:46;;;;;;;3.35;2.65;;;;;;;17.57;65.52;99744.53;7401417;19;20017;-69
2022/05/24 06:56:15;;;;;;;5.07;2.63;;;;;;;17.64;65.36;99742.31;7400084;19;20035;-69
2022/05/24 06:58:43;;;;;;;3.33;2.60;;;;;;;17.71;64.75;99743.63;7399911;19;20022;-70
2022/05/24 07:03:54;;;;;;;2.50;2.28;;;;;;;17.88;63.31;99751.28;7400688;19;20022;-69
2022/05/24 07:06:25;;;;;;;3.05;2.22;;;;;;;17.98;61.61;99740.06;7397697;19;20431;-69
2022/05/24 07:08:53;;;;;;;4.05;2.13;;;;;;;18.09;61.73;99752.59;7399767;19;20385;-69
2022/05/24 07:11:23;;;;;;;2.00;1.83;;;;;;;18.20;60.76;99763.34;7400295;19;20018;-69
2022/05/24 07:13:51;;;;;;;3.08;2.10;;;;;;;18.29;60.50;99770.66;7400264;19;20020;-69
2022/05/24 07:16:19;;;;;;;4.05;2.13;;;;;;;18.34;59.87;99762.38;7399670;19;20023;-70
2022/05/24 07:18:48;;;;;;;2.05;1.90;;;;;;;18.43;58.63;99774.16;7399191;19;20049;-70
2022/05/24 07:21:16;;;;;;;2.53;1.73;;;;;;;18.43;57.17;99803.38;7396628;19;20027;-69
2022/05/24 07:23:47;;;;;;;1.80;1.63;;;;;;;18.40;58.60;99794.66;7399489;19;20536;-69
2022/05/24 07:26:18;;;;;;;2.17;1.73;;;;;;;18.38;58.74;99806.34;7397997;19;20014;-69
2022/05/24 07:28:46;;;;;;;2.72;1.73;;;;;;;18.33;58.17;99795.19;7399257;19;20028;-69
2022/05/24 07:31:14;;;;;;;3.53;2.10;;;;;;;18.32;59.12;99796.97;7397079;19;20035;-70
2022/05/24 07:33:42;;;;;;;2.35;1.83;;;;;;;18.36;59.13;99798.47;7398968;19;20031;-70
2022/05/24 07:36:11;;;;;;;4.53;2.33;;;;;;;18.44;59.52;99800.59;7396756;19;20014;-71
2022/05/24 07:38:40;;;;;;;2.85;1.88;;;;;;;18.54;58.49;99800.81;7398352;19;20493;-71
2022/05/24 07:46:32;;;;;;;3.42;1.80;;;;;;;18.69;57.89;99820.97;7397540;19;20030;-71
2022/05/24 07:49:01;;;;;;;4.45;1.48;;;;;;;18.72;58.26;99820.75;7396056;19;20514;-71
2022/05/24 07:51:29;;;;;;;5.00;1.55;;;;;;;18.76;57.15;99815.22;7396488;19;20026;-69
2022/05/24 07:53:57;;;;;;;2.50;1.67;;;;;;;18.72;56.93;99815.44;7398988;19;20011;-70
2022/05/24 07:56:28;;;;;;;1.33;1.23;;;;;;;18.76;57.30;99823.19;7396274;19;20014;-70
2022/05/24 07:58:56;;;;;;;1.80;1.13;;;;;;;18.76;56.15;99820.53;7396949;19;20027;-70
2022/05/24 08:01:25;;;;;;;1.40;1.30;;;;;;;18.84;56.72;99829.66;7394946;19;20082;-69
2022/05/24 08:03:54;;;;;;;4.18;1.30;;;;;;;18.91;56.52;99840.75;7398662;19;20011;-69
2022/05/24 08:06:22;;;;;;;2.78;1.00;;;;;;;18.97;55.91;99840.31;7396949;19;20035;-70
2022/05/24 08:08:50;;;;;;;3.63;1.05;;;;;;;19.02;55.51;99861.25;7396074;19;20022;-71
2022/05/24 08:11:18;;;;;;;0.80;0.80;;;;;;;19.01;53.50;99857.72;7396033;19;20015;-70
2022/05/24 08:13:49;;;;;;;2.13;1.08;;;;;;;19.00;53.72;99857.84;7396108;19;20033;-70
2022/05/24 08:16:17;;;;;;;0.88;0.80;;;;;;;18.96;53.93;99851.06;7396190;19;20014;-70
2022/05/24 08:18:47;;;;;;;1.35;0.93;;;;;;;18.96;53.89;99851.06;7397844;19;20240;-70
2022/05/24 08:21:15;;;;;;;1.40;1.00;;;;;;;18.93;52.98;99841.50;7395653;19;20026;-71
2022/05/24 08:23:44;;;;;;;3.20;0.88;;;;;;;18.96;52.76;99854.53;7397334;19;20040;-70
2022/05/24 08:26:13;;;;;;;1.48;0.82;;;;;;;18.95;53.14;99865.28;7394607;19;20100;-70
2022/05/24 08:28:43;;;;;;;2.30;0.93;;;;;;;18.99;53.57;99858.78;7396771;19;20544;-71
2022/05/24 08:31:13;;;;;;;2.25;0.90;;;;;;;19.00;52.90;99874.63;7397181;19;20044;-70
2022/05/24 08:33:42;;;;;;;1.52;1.10;;;;;;;19.00;52.92;99884.41;7397204;19;20018;-71
2022/05/24 08:36:10;;;;;;;1.13;0.90;;;;;;;18.98;53.01;99865.94;7394931;19;20032;-71
2022/05/24 08:38:39;;;;;;;2.20;0.90;;;;;;;19.00;53.14;99873.78;7394337;19;20388;-70
2022/05/24 08:41:16;;;;;;;1.00;0.90;;;;;;;18.99;51.67;99862.31;7396774;19;20032;-69
2022/05/24 08:48:22;;;;;;;0.80;0.80;;;;;;;18.99;51.27;99877.41;7397485;19;20014;-71
2022/05/24 08:49:33;;;;;;;1.30;0.93;;;;;;;19.01;52.75;99871.00;7396809;19;20021;-70
2022/05/24 08:52:04;;;;;;;2.40;1.30;;;;;;;19.11;52.42;99867.69;7397084;19;20026;-70
2022/05/24 08:54:39;;;;;;;1.20;0.90;;;;;;;19.20;51.71;99877.69;7397248;19;20018;-71
2022/05/24 08:57:12;;;;;;;8.50;1.85;;;;;;;19.27;52.17;99873.63;7397193;19;20015;-71
2022/05/24 08:59:47;;;;;;;9.47;1.93;;;;;;;19.36;51.83;99882.72;7395015;19;20019;-72
2022/05/24 09:02:17;;;;;;;3.05;1.38;;;;;;;19.47;51.88;99873.97;7394781;19;20040;-71
2022/05/24 09:04:45;;;;;;;4.93;1.30;;;;;;;19.53;52.38;99868.22;7396455;19;20018;-71
2022/05/24 09:07:22;;;;;;;2.25;1.20;;;;;;;19.59;51.76;99869.56;7394423;19;20035;-72
2022/05/24 09:09:56;;;;;;;3.08;1.27;;;;;;;19.63;51.49;99869.22;7395541;19;20018;-71
2022/05/24 09:12:37;;;;;;;;;;;;;;;19.62;50.57;99869.34;7396033;19;20371;-71
2022/05/24 09:15:14;;;;;;;1.45;1.13;;;;;;;19.54;51.23;99877.91;7395820;19;19918;-69
2022/05/24 09:18:01;;;;;;;1.38;1.10;;;;;;;19.49;51.77;99864.09;7393190;19;20026;-70
2022/05/24 09:20:33;;;;;;;2.97;1.00;;;;;;;19.53;52.09;99871.72;7394126;19;20015;-71
2022/05/24 09:23:05;;;;;;;1.30;1.20;;;;;;;19.53;51.64;99874.38;7394052;19;20035;-68
2022/05/24 09:25:34;;;;;;;2.35;1.40;;;;;;;19.57;51.94;99882.97;7396686;19;20457;-70
2022/05/24 09:28:02;;;;;;;2.75;1.50;;;;;;;19.63;52.22;99876.38;7393836;19;20023;-70
2022/05/24 09:30:43;;;;;;;2.38;1.50;;;;;;;19.68;51.97;99877.72;7394352;19;20015;-72
2022/05/24 09:33:25;;;;;;;2.28;1.40;;;;;;;19.73;50.82;99876.53;7395351;19;20382;-71
2022/05/24 09:35:59;;;;;;;1.30;1.20;;;;;;;19.80;51.64;99869.78;7394670;19;20014;-69
2022/05/24 09:38:35;;;;;;;1.38;1.27;;;;;;;19.91;51.82;99869.88;7394061;19;20477;-71
2022/05/24 09:41:13;;;;;;;2.22;1.90;;;;;;;20.01;50.08;99886.00;7392858;19;20023;-69
2022/05/24 09:43:42;;;;;;;3.28;1.75;;;;;;;20.03;51.19;99870.78;7394978;19;20018;-68
2022/05/24 09:46:14;;;;;;;1.83;1.70;;;;;;;20.02;51.27;99863.75;7394711;19;20078;-69
2022/05/24 09:48:57;;;;;;;2.42;1.90;;;;;;;20.05;50.78;99858.19;7393424;19;20018;-71
2022/05/24 09:51:27;;;;;;;2.85;1.83;;;;;;;20.10;51.03;99860.50;7394948;19;20014;-71
2022/05/24 09:53:57;;;;;;;2.80;1.75;;;;;;;20.16;51.18;99860.03;7393248;19;20014;-71
2022/05/24 09:56:30;;;;;;;1.77;1.52;;;;;;;20.21;51.09;99862.34;7395353;19;20089;-71
2022/05/24 09:59:01;;;;;;;3.45;1.80;;;;;;;20.23;50.56;99866.56;7395340;19;20022;-71
2022/05/24 10:01:43;;;;;;;2.50;2.30;;;;;;;20.29;50.17;99868.78;7393866;19;20035;-71
2022/05/24 10:04:21;;;;;;;2.25;1.70;;;;;;;20.40;51.01;99859.13;7394738;19;20503;-70
2022/05/24 10:06:56;;;;;;;3.60;1.80;;;;;;;20.53;50.53;99877.69;7394251;19;20021;-71
2022/05/24 10:10:03;;;;;;;2.30;1.92;;;;;;;20.63;49.72;99868.84;7393095;19;20025;-70
2022/05/24 10:12:55;;;;;;;2.05;1.85;;;;;;;20.71;49.68;99859.44;7392811;19;20022;-71
2022/05/24 10:15:33;;;;;;;5.22;2.40;;;;;;;20.77;49.95;99869.63;7394217;19;20027;-70
2022/05/24 10:18:19;;;;;;;3.38;2.13;;;;;;;20.83;49.13;99874.47;7395091;19;20041;-71
2022/05/24 10:21:02;;;;;;;3.90;2.40;;;;;;;20.88;49.20;99869.63;7391499;19;20452;-71
2022/05/24 10:23:41;;;;;;;3.92;2.95;;;;;;;20.91;49.57;99872.03;7397932;19;20061;-70
2022/05/24 10:26:19;;;;;;;2.53;1.98;;;;;;;20.96;49.76;99871.69;7401645;19;20074;-68
2022/05/24 10:29:05;;;;;;;2.47;2.25;;;;;;;21.05;48.97;99862.94;7396992;19;20014;-71
2022/05/24 10:31:46;;;;;;;4.28;3.08;;;;;;;21.13;47.96;99875.69;7398304;19;20023;-70
2022/05/24 10:40:04;;;;;;;4.35;3.35;;;;;;;21.36;46.73;99864.94;7399695;19;20066;-69
2022/05/24 10:42:50;;;;;;;4.10;3.05;;;;;;;21.39;47.51;99856.72;7400804;19;20485;-69
2022/05/24 10:45:20;;;;;;;11.98;2.90;;;;;;;21.40;48.20;99855.75;7401404;19;20007;-71
2022/05/24 10:47:52;;;;;;;3.28;2.50;;;;;;;21.45;47.43;99859.72;7399902;19;20022;-67
2022/05/24 10:50:24;;;;;;;7.57;2.38;;;;;;;21.52;47.52;99861.88;7398915;19;20522;-64
2022/05/24 10:53:02;;;;;;;3.22;1.90;;;;;;;21.61;47.95;99843.34;7398390;19;20383;-71
2022/05/24 10:55:36;;;;;;;3.20;1.70;;;;;;;21.80;47.25;99836.47;7398515;19;20027;-68
2022/05/24 10:58:09;;;;;;;5.10;1.85;;;;;;;21.94;45.60;99862.88;7401134;19;20015;-67
2022/05/24 11:00:43;;;;;;;3.47;1.55;;;;;;;22.04;45.74;99854.94;7398144;19;20377;-67
2022/05/24 11:03:13;;;;;;;;;;;;;;;22.13;46.17;99842.63;7401886;19;20018;-69
2022/05/24 11:05:46;;;;;;;2.58;1.70;;;;;;;22.22;45.39;99847.19;7401601;19;20013;-67
2022/05/24 11:08:35;;;;;;;9.85;2.88;;;;;;;22.26;44.82;99853.94;7398944;19;20035;-69
2022/05/24 11:11:09;;;;;;;3.10;1.63;;;;;;;22.26;44.89;99845.94;7397273;19;20390;-68
2022/05/24 11:13:45;;;;;;;6.32;2.00;;;;;;;22.27;45.09;99861.00;7400120;19;20035;-68
2022/05/24 11:16:18;;;;;;;2.95;1.95;;;;;;;22.28;45.73;99862.69;7396106;19;20034;-67
2022/05/24 11:18:52;;;;;;;2.15;1.90;;;;;;;22.34;45.68;99860.47;7397007;19;20018;-68
2022/05/24 11:21:27;;;;;;;2.33;1.70;;;;;;;22.37;44.86;99855.75;7395925;19;20022;-68
2022/05/24 11:24:05;;;;;;;1.83;1.38;;;;;;;22.36;45.11;99864.69;7398758;19;20015;-68
2022/05/24 11:26:35;;;;;;;2.13;1.90;;;;;;;22.39;45.74;99866.28;7397909;19;20035;-68
2022/05/24 11:29:17;;;;;;;2.63;1.75;;;;;;;22.44;45.22;99862.25;7395427;19;20014;-68
2022/05/24 11:31:50;;;;;;;4.22;2.28;;;;;;;22.51;45.64;99856.38;7396609;19;20365;-69
2022/05/24 11:34:23;;;;;;;9.05;2.20;;;;;;;22.57;45.26;99859.38;7398362;19;20035;-69
2022/05/24 11:37:04;;;;;;;6.07;2.20;;;;;;;22.60;44.03;99864.44;7398950;19;20022;-69
2022/05/24 11:39:38;;;;;;;5.18;1.88;;;;;;;22.65;44.60;99879.25;7394535;19;20379;-68
2022/05/24 11:42:28;;;;;;;5.63;2.25;;;;;;;22.70;44.75;99874.34;7396649;19;20423;-69
2022/05/24 11:44:58;;;;;;;2.85;1.80;;;;;;;22.82;45.32;99877.78;7398568;19;20378;-70
2022/05/24 11:48:00;;;;;;;3.05;1.90;;;;;;;22.92;44.54;99878.66;7397595;19;20469;-69
2022/05/24 11:50:50;;;;;;;2.20;1.42;;;;;;;22.96;44.32;99889.94;7397494;19;20035;-68
2022/05/24 11:53:38;;;;;;;1.88;1.77;;;;;;;22.93;44.51;99877.69;7398793;19;20018;-68
2022/05/24 11:56:21;;;;;;;2.38;1.70;;;;;;;22.85;44.56;99901.56;7399027;19;20028;-69
2022/05/24 11:58:52;;;;;;;9.23;2.90;;;;;;;22.74;45.50;99894.50;7399076;19;20022;-69
2022/05/24 12:01:50;;;;;;;3.72;2.00;;;;;;;22.65;45.44;99896.13;7398925;19;20015;-68
2022/05/24 12:10:13;;;;;;;1.65;1.55;;;;;;;22.34;46.22;99912.06;7396802;19;20014;-68
2022/05/24 12:13:31;;;;;;;5.10;1.95;;;;;;;22.23;46.00;99917.47;7398464;19;20473;-68
2022/05/24 12:16:02;;;;;;;6.05;2.00;;;;;;;22.10;46.11;99920.31;7395769;19;20095;-68
2022/05/24 12:18:46;;;;;;;1.42;1.33;;;;;;;21.99;46.12;99920.38;7398111;19;20023;-68
2022/05/24 12:21:43;;;;;;;3.53;1.48;;;;;;;21.87;45.68;99931.09;7395807;19;20014;-68
2022/05/24 12:24:36;;;;;;;21.58;3.50;;;;;;;21.72;46.06;99919.84;7395702;19;20015;-68
2022/05/24 12:27:18;;;;;;;7.40;1.45;;;;;;;21.64;45.95;99925.81;7397345;19;20028;-69
2022/05/24 12:29:52;;;;;;;29.90;3.47;;;;;;;21.57;46.48;99929.09;7394292;19;20481;-68
2022/05/24 12:32:22;;;;;;;1.88;1.20;;;;;;;21.49;46.62;99940.38;7396930;19;20319;-72
2022/05/24 12:34:51;;;;;;;2.80;1.33;;;;;;;21.39;48.21;99932.25;7396811;19;20027;-69
2022/05/24 12:37:25;;;;;;;7.60;1.85;;;;;;;21.31;48.72;99937.38;7394171;19;20379;-68